Time;durP1;ratioP1;P1;durP2;ratioP2;P2;SDS_P1;SDS_P2;PMS_P1;PMS_P2;Temp;Humidity;BMP_temperature;BMP_pressure;BME280_temperature;BME280_humidity;BME280_pressure;Samples;Min_cycle;Max_cycle;Signal;HPM_P1;HPM_P2
2023/04/04 00:01:25;;;;;;;4.33;1.67;;;;;;;;;;5041167;28;20327;-52
2023/04/04 00:03:51;;;;;;;3.13;2.07;;;;;;;;;;5038329;28;20257;-54
2023/04/04 00:06:18;;;;;;;3.60;1.80;;;;;;;;;;5040785;28;20229;-52
2023/04/04 00:08:45;;;;;;;3.60;1.80;;;;;;;;;;5035535;28;20752;-51
2023/04/04 00:11:13;;;;;;;2.60;2.00;;;;;;;;;;5032199;28;20244;-57
2023/04/04 00:13:40;;;;;;;3.73;2.27;;;;;;;;;;5038230;28;20342;-51
2023/04/04 00:16:07;;;;;;;9.20;2.10;;;;;;;;;;5036928;28;20791;-52
2023/04/04 00:18:33;;;;;;;3.67;2.23;;;;;;;;;;5037931;28;20246;-52
2023/04/04 00:21:00;;;;;;;3.37;2.67;;;;;;;;;;5042166;28;20235;-51
2023/04/04 00:23:27;;;;;;;2.93;1.80;;;;;;;;;;5039530;28;20265;-52
2023/04/04 00:25:54;;;;;;;4.37;2.40;;;;;;;;;;5041440;28;20233;-52
2023/04/04 00:28:22;;;;;;;3.53;2.50;;;;;;;;;;5044024;28;20235;-53
2023/04/04 00:30:48;;;;;;;4.23;2.10;;;;;;;;;;5043289;28;20860;-52
2023/04/04 00:33:15;;;;;;;6.97;2.83;;;;;;;;;;5037660;28;20304;-52
2023/04/04 00:35:41;;;;;;;3.27;1.97;;;;;;;;;;5042513;28;20238;-51
2023/04/04 00:38:08;;;;;;;3.00;2.50;;;;;;;;;;5034702;28;20297;-51
2023/04/04 00:40:40;;;;;;;3.17;2.27;;;;;;;;;;5032151;28;20234;-50
2023/04/04 00:43:07;;;;;;;2.40;2.10;;;;;;;;;;5036690;28;20677;-51
2023/04/04 00:45:35;;;;;;;2.87;1.67;;;;;;;;;;5042084;28;20239;-51
2023/04/04 00:48:02;;;;;;;8.30;2.10;;;;;;;;;;5042757;28;20265;-51
2023/04/04 00:50:31;;;;;;;4.20;2.40;;;;;;;;;;5047864;28;20230;-51
2023/04/04 00:52:57;;;;;;;5.67;1.63;;;;;;;;;;5035708;28;20245;-52
2023/04/04 00:55:24;;;;;;;6.03;2.27;;;;;;;;;;5039695;28;20799;-53
2023/04/04 00:57:51;;;;;;;8.37;2.87;;;;;;;;;;5044887;28;20256;-51
2023/04/04 01:00:18;;;;;;;3.17;2.23;;;;;;;;;;5039302;28;20853;-51
2023/04/04 01:02:46;;;;;;;7.20;2.57;;;;;;;;;;5039800;28;20766;-51
2023/04/04 01:05:13;;;;;;;3.77;2.60;;;;;;;;;;5041966;28;20277;-51
2023/04/04 01:07:40;;;;;;;6.60;2.30;;;;;;;;;;5028903;28;20239;-52
2023/04/04 01:10:07;;;;;;;2.63;2.10;;;;;;;;;;5038890;28;20288;-52
2023/04/04 01:12:34;;;;;;;6.67;1.83;;;;;;;;;;5042274;28;20667;-53
2023/04/04 01:15:01;;;;;;;6.23;2.90;;;;;;;;;;5040328;28;20300;-52
2023/04/04 01:17:28;;;;;;;5.47;2.10;;;;;;;;;;5039781;28;20317;-52
2023/04/04 01:20:01;;;;;;;3.63;2.00;;;;;;;;;;5041700;28;20676;-53
2023/04/04 01:22:28;;;;;;;4.83;1.73;;;;;;;;;;5034429;28;20285;-51
2023/04/04 01:24:55;;;;;;;3.47;2.00;;;;;;;;;;5042460;28;20240;-52
2023/04/04 01:27:22;;;;;;;5.40;2.20;;;;;;;;;;5044756;28;20250;-51
2023/04/04 01:29:49;;;;;;;4.23;2.00;;;;;;;;;;5045296;28;20240;-52
2023/04/04 01:32:18;;;;;;;3.83;2.27;;;;;;;;;;5043045;28;20309;-52
2023/04/04 01:34:50;;;;;;;6.70;2.27;;;;;;;;;;5038850;28;20937;-51
2023/04/04 01:37:20;;;;;;;4.40;1.77;;;;;;;;;;5039683;28;20243;-52
2023/04/04 01:39:48;;;;;;;8.33;2.20;;;;;;;;;;5035488;28;20325;-51
2023/04/04 01:42:16;;;;;;;3.10;2.50;;;;;;;;;;5038910;28;20245;-51
2023/04/04 01:44:44;;;;;;;2.53;2.00;;;;;;;;;;5038278;28;20316;-52
2023/04/04 01:47:12;;;;;;;3.20;2.47;;;;;;;;;;5039160;28;20765;-52
2023/04/04 01:49:39;;;;;;;3.90;2.60;;;;;;;;;;5035072;28;20235;-52
2023/04/04 01:52:06;;;;;;;4.00;1.87;;;;;;;;;;5036021;28;20259;-52
2023/04/04 01:54:34;;;;;;;6.37;2.57;;;;;;;;;;5040203;28;20311;-52
2023/04/04 01:57:01;;;;;;;8.60;2.70;;;;;;;;;;5036616;28;20322;-51
2023/04/04 01:59:27;;;;;;;3.13;1.70;;;;;;;;;;5046819;28;20246;-52
2023/04/04 02:01:56;;;;;;;3.63;2.60;;;;;;;;;;5046792;28;20321;-51
2023/04/04 02:04:22;;;;;;;2.67;1.90;;;;;;;;;;5045829;28;20228;-52
2023/04/04 02:06:49;;;;;;;5.23;2.33;;;;;;;;;;5045099;28;20278;-52
2023/04/04 02:09:15;;;;;;;2.17;1.90;;;;;;;;;;5044029;28;20251;-52
2023/04/04 02:11:42;;;;;;;4.73;1.80;;;;;;;;;;5042722;28;20236;-52
2023/04/04 02:14:08;;;;;;;4.43;1.83;;;;;;;;;;5043481;28;20753;-52
2023/04/04 02:16:35;;;;;;;2.30;1.80;;;;;;;;;;5044831;28;20241;-52
2023/04/04 02:19:03;;;;;;;3.97;2.17;;;;;;;;;;5042667;28;20702;-52
2023/04/04 02:21:29;;;;;;;2.57;2.33;;;;;;;;;;5044874;28;20255;-51
2023/04/04 02:23:56;;;;;;;4.57;3.47;;;;;;;;;;5046454;28;20328;-52
2023/04/04 02:26:22;;;;;;;5.30;2.70;;;;;;;;;;5040556;28;20235;-51
2023/04/04 02:28:49;;;;;;;5.43;2.43;;;;;;;;;;5046157;28;20261;-50
2023/04/04 02:31:15;;;;;;;4.13;2.40;;;;;;;;;;5043714;28;20281;-51
2023/04/04 02:33:42;;;;;;;2.47;2.27;;;;;;;;;;5045554;28;20709;-51
2023/04/04 02:36:11;;;;;;;4.03;2.57;;;;;;;;;;5037802;28;20237;-51
2023/04/04 02:38:37;;;;;;;3.00;1.90;;;;;;;;;;5040586;28;20333;-51
2023/04/04 02:41:04;;;;;;;3.43;2.40;;;;;;;;;;5045511;28;20232;-51
2023/04/04 02:43:30;;;;;;;5.47;2.37;;;;;;;;;;5042388;28;20234;-52
2023/04/04 02:45:57;;;;;;;4.43;2.00;;;;;;;;;;5037005;28;20625;-52
2023/04/04 02:48:24;;;;;;;2.53;2.23;;;;;;;;;;5044557;28;20239;-52
2023/04/04 02:50:51;;;;;;;9.30;2.60;;;;;;;;;;5048296;28;20798;-52
2023/04/04 02:53:19;;;;;;;2.43;2.23;;;;;;;;;;5036393;28;20239;-51
2023/04/04 02:55:46;;;;;;;4.00;2.67;;;;;;;;;;5044114;28;20259;-51
2023/04/04 02:58:12;;;;;;;2.70;2.20;;;;;;;;;;5038126;28;20246;-51
2023/04/04 03:00:38;;;;;;;4.50;2.47;;;;;;;;;;5039593;28;20230;-52
2023/04/04 03:03:06;;;;;;;5.70;2.47;;;;;;;;;;5040457;28;20672;-50
2023/04/04 03:05:32;;;;;;;2.17;1.97;;;;;;;;;;5038287;28;20323;-51
2023/04/04 03:07:59;;;;;;;5.40;2.33;;;;;;;;;;5041229;28;20322;-51
2023/04/04 03:10:28;;;;;;;4.30;2.50;;;;;;;;;;5042053;28;20729;-51
2023/04/04 03:12:55;;;;;;;5.70;3.03;;;;;;;;;;5045700;28;20234;-51
2023/04/04 03:15:21;;;;;;;5.10;2.47;;;;;;;;;;5038516;28;20774;-51
2023/04/04 03:17:48;;;;;;;9.17;3.70;;;;;;;;;;5033230;28;20650;-51
2023/04/04 03:20:15;;;;;;;5.50;2.70;;;;;;;;;;5039466;28;20341;-51
2023/04/04 03:22:41;;;;;;;5.27;2.63;;;;;;;;;;5044654;28;20237;-51
2023/04/04 03:25:08;;;;;;;2.47;2.07;;;;;;;;;;5044354;28;20309;-52
2023/04/04 03:27:38;;;;;;;6.00;2.53;;;;;;;;;;5042733;28;20227;-53
2023/04/04 03:30:05;;;;;;;5.67;2.50;;;;;;;;;;5033978;28;20653;-52
2023/04/04 03:32:32;;;;;;;6.07;2.67;;;;;;;;;;5027560;28;20594;-51
2023/04/04 03:34:59;;;;;;;5.97;2.00;;;;;;;;;;5030922;28;20242;-52
2023/04/04 03:37:25;;;;;;;5.73;2.53;;;;;;;;;;5031441;28;20238;-52
2023/04/04 03:39:52;;;;;;;2.90;2.20;;;;;;;;;;5035898;28;20318;-52
2023/04/04 03:42:18;;;;;;;5.17;2.17;;;;;;;;;;5032344;28;20239;-52
2023/04/04 03:44:46;;;;;;;4.53;3.00;;;;;;;;;;5035596;28;20250;-52
2023/04/04 03:47:13;;;;;;;4.60;2.87;;;;;;;;;;5030084;28;20247;-51
2023/04/04 03:49:40;;;;;;;2.57;1.87;;;;;;;;;;5036504;28;20601;-52
2023/04/04 03:52:06;;;;;;;4.03;2.07;;;;;;;;;;5034256;28;20301;-51
2023/04/04 03:54:33;;;;;;;3.50;2.17;;;;;;;;;;5030511;28;20233;-55
2023/04/04 03:57:00;;;;;;;4.20;1.97;;;;;;;;;;5031023;28;20816;-51
2023/04/04 03:59:26;;;;;;;3.57;1.87;;;;;;;;;;5036285;28;20239;-52
2023/04/04 04:01:55;;;;;;;3.80;2.40;;;;;;;;;;5034394;28;20243;-52
2023/04/04 04:04:22;;;;;;;3.77;2.37;;;;;;;;;;5036148;28;20255;-51
2023/04/04 04:06:49;;;;;;;3.50;2.73;;;;;;;;;;5040138;28;20315;-53
2023/04/04 04:09:15;;;;;;;4.57;2.97;;;;;;;;;;5035118;28;20228;-53
2023/04/04 04:11:43;;;;;;;8.30;2.73;;;;;;;;;;5037139;28;20239;-53
2023/04/04 04:14:09;;;;;;;10.63;2.77;;;;;;;;;;5031801;28;20239;-51
2023/04/04 04:16:39;;;;;;;3.90;2.13;;;;;;;;;;5037034;28;20237;-51
2023/04/04 04:19:07;;;;;;;4.00;2.23;;;;;;;;;;5043162;28;20238;-51
2023/04/04 04:21:34;;;;;;;7.10;2.83;;;;;;;;;;5038981;28;20235;-51
2023/04/04 04:24:00;;;;;;;2.73;2.47;;;;;;;;;;5041371;28;20716;-51
2023/04/04 04:26:27;;;;;;;3.20;2.57;;;;;;;;;;5031089;28;20245;-51
2023/04/04 04:28:53;;;;;;;3.03;2.40;;;;;;;;;;5040006;28;20247;-51
2023/04/04 04:31:20;;;;;;;4.20;2.67;;;;;;;;;;5029474;28;20758;-51
2023/04/04 04:33:47;;;;;;;3.03;2.57;;;;;;;;;;5026533;28;20238;-52
2023/04/04 04:36:15;;;;;;;4.40;2.43;;;;;;;;;;5032961;28;20762;-51
2023/04/04 04:38:41;;;;;;;5.97;3.33;;;;;;;;;;5039185;28;20232;-52
2023/04/04 04:41:08;;;;;;;3.97;2.53;;;;;;;;;;5035454;28;20300;-51
2023/04/04 04:43:35;;;;;;;5.43;2.57;;;;;;;;;;5033024;28;20259;-51
2023/04/04 04:46:02;;;;;;;5.57;2.37;;;;;;;;;;5029702;28;20228;-51
2023/04/04 04:48:29;;;;;;;3.60;2.43;;;;;;;;;;5031665;28;20288;-51
2023/04/04 04:50:55;;;;;;;3.90;2.77;;;;;;;;;;5031195;28;20318;-52
2023/04/04 04:53:23;;;;;;;6.03;2.77;;;;;;;;;;5035388;28;20235;-52
2023/04/04 04:55:51;;;;;;;4.93;2.67;;;;;;;;;;5037532;28;20237;-51
2023/04/04 04:58:20;;;;;;;3.53;2.37;;;;;;;;;;5037938;28;20759;-51
2023/04/04 05:00:46;;;;;;;3.30;2.90;;;;;;;;;;5037060;28;20284;-50
2023/04/04 05:03:13;;;;;;;4.77;3.10;;;;;;;;;;5037806;28;20235;-52
2023/04/04 05:05:39;;;;;;;8.00;3.73;;;;;;;;;;5042781;28;20231;-51
2023/04/04 05:08:06;;;;;;;5.03;3.37;;;;;;;;;;5034730;28;20234;-51
2023/04/04 05:10:34;;;;;;;6.77;3.53;;;;;;;;;;5036794;28;20704;-52
2023/04/04 05:13:00;;;;;;;6.03;3.37;;;;;;;;;;5028122;28;20241;-51
2023/04/04 05:15:28;;;;;;;4.63;3.27;;;;;;;;;;5035029;28;20604;-52
2023/04/04 05:17:54;;;;;;;5.37;3.57;;;;;;;;;;5029995;28;20677;-53
2023/04/04 05:20:21;;;;;;;8.23;3.67;;;;;;;;;;5026523;28;20252;-52
2023/04/04 05:22:48;;;;;;;10.13;3.83;;;;;;;;;;5032531;28;20239;-52
2023/04/04 05:25:14;;;;;;;3.77;2.90;;;;;;;;;;5037796;28;20242;-51
2023/04/04 05:27:42;;;;;;;6.13;2.93;;;;;;;;;;5037458;28;20656;-51
2023/04/04 05:30:09;;;;;;;13.97;3.40;;;;;;;;;;5038122;28;20260;-52
2023/04/04 05:32:36;;;;;;;6.20;2.97;;;;;;;;;;5030690;28;20283;-52
2023/04/04 05:35:03;;;;;;;10.30;3.17;;;;;;;;;;5037719;28;20238;-52
2023/04/04 05:37:30;;;;;;;5.73;3.50;;;;;;;;;;5030221;28;20311;-52
2023/04/04 05:39:56;;;;;;;6.53;3.03;;;;;;;;;;5035917;28;20456;-52
2023/04/04 05:42:23;;;;;;;4.97;3.00;;;;;;;;;;5038315;28;20292;-52
2023/04/04 05:44:51;;;;;;;7.27;3.83;;;;;;;;;;5041873;28;20235;-52
2023/04/04 05:47:18;;;;;;;3.97;2.67;;;;;;;;;;5035928;28;21761;-52
2023/04/04 05:49:45;;;;;;;3.63;2.80;;;;;;;;;;5040195;28;20311;-52
2023/04/04 05:52:11;;;;;;;3.23;2.53;;;;;;;;;;5031609;28;20234;-52
2023/04/04 05:54:38;;;;;;;4.97;3.33;;;;;;;;;;5029871;28;20247;-53
2023/04/04 05:57:05;;;;;;;5.70;3.30;;;;;;;;;;5027194;28;20272;-51
2023/04/04 05:59:31;;;;;;;6.53;3.00;;;;;;;;;;5027431;28;20240;-52
2023/04/04 06:02:00;;;;;;;4.40;2.90;;;;;;;;;;5035497;28;20693;-52
2023/04/04 06:04:26;;;;;;;4.20;3.00;;;;;;;;;;5033245;28;20246;-51
2023/04/04 06:06:53;;;;;;;3.93;2.63;;;;;;;;;;5038779;28;20236;-51
2023/04/04 06:09:19;;;;;;;6.73;3.13;;;;;;;;;;5039374;28;20242;-51
2023/04/04 06:11:46;;;;;;;4.43;3.80;;;;;;;;;;5032706;28;20238;-51
2023/04/04 06:14:13;;;;;;;9.83;3.37;;;;;;;;;;5033341;28;20346;-53
2023/04/04 06:16:39;;;;;;;7.90;3.13;;;;;;;;;;5038049;28;20246;-51
2023/04/04 06:19:08;;;;;;;8.20;3.20;;;;;;;;;;5030176;28;20236;-51
2023/04/04 06:21:34;;;;;;;4.03;2.87;;;;;;;;;;5023289;28;20278;-51
2023/04/04 06:24:01;;;;;;;3.03;2.30;;;;;;;;;;5033303;28;20239;-52
2023/04/04 06:26:27;;;;;;;4.93;3.13;;;;;;;;;;5031212;28;20742;-51
2023/04/04 06:28:54;;;;;;;9.13;3.30;;;;;;;;;;5029912;28;20302;-51
2023/04/04 06:31:21;;;;;;;4.17;2.53;;;;;;;;;;5030110;28;20242;-50
2023/04/04 06:33:47;;;;;;;4.40;2.57;;;;;;;;;;5031330;28;20241;-51
2023/04/04 06:36:15;;;;;;;3.33;2.30;;;;;;;;;;5029340;28;20264;-51
2023/04/04 06:38:42;;;;;;;5.67;2.50;;;;;;;;;;5035598;28;20238;-51
2023/04/04 06:41:08;;;;;;;3.87;2.40;;;;;;;;;;5032083;28;20234;-53
2023/04/04 06:43:35;;;;;;;6.90;2.87;;;;;;;;;;5040420;28;20234;-52
2023/04/04 06:46:01;;;;;;;6.27;3.03;;;;;;;;;;5041446;28;20658;-51
2023/04/04 06:48:28;;;;;;;4.43;2.97;;;;;;;;;;5035043;28;20242;-51
2023/04/04 06:50:55;;;;;;;3.27;2.67;;;;;;;;;;5045893;28;20296;-51
2023/04/04 06:53:23;;;;;;;5.80;2.60;;;;;;;;;;5037499;28;20762;-51
2023/04/04 06:55:50;;;;;;;5.43;2.13;;;;;;;;;;5040974;28;20230;-51
2023/04/04 06:58:17;;;;;;;4.87;2.90;;;;;;;;;;5045842;28;20234;-51
2023/04/04 07:00:43;;;;;;;6.37;2.67;;;;;;;;;;5041158;28;20302;-51
2023/04/04 07:03:10;;;;;;;6.83;3.00;;;;;;;;;;5032818;28;20231;-52
2023/04/04 07:05:38;;;;;;;4.93;2.70;;;;;;;;;;5037270;28;20230;-51
2023/04/04 07:08:05;;;;;;;4.70;2.20;;;;;;;;;;5030811;28;20758;-51
2023/04/04 07:10:33;;;;;;;6.53;2.43;;;;;;;;;;5036613;28;20611;-51
2023/04/04 07:13:00;;;;;;;7.33;2.60;;;;;;;;;;5033571;28;20266;-52
2023/04/04 07:15:27;;;;;;;2.17;1.87;;;;;;;;;;5030986;28;20242;-51
2023/04/04 07:17:53;;;;;;;5.00;2.30;;;;;;;;;;5035871;28;20330;-51
2023/04/04 07:20:20;;;;;;;4.93;2.97;;;;;;;;;;5030867;28;20293;-51
2023/04/04 07:22:46;;;;;;;6.57;3.00;;;;;;;;;;5029026;28;20285;-51
2023/04/04 07:25:13;;;;;;;5.23;2.23;;;;;;;;;;5034221;28;20956;-51
2023/04/04 07:27:41;;;;;;;6.30;2.80;;;;;;;;;;5027375;28;20306;-52
2023/04/04 07:30:08;;;;;;;4.13;2.33;;;;;;;;;;5036212;28;20236;-51
2023/04/04 07:32:34;;;;;;;5.87;2.20;;;;;;;;;;5031637;28;20810;-52
2023/04/04 07:35:01;;;;;;;4.03;2.00;;;;;;;;;;5039112;28;20245;-52
2023/04/04 07:37:27;;;;;;;4.17;2.17;;;;;;;;;;5036590;28;20285;-52
2023/04/04 07:39:54;;;;;;;3.83;1.80;;;;;;;;;;5044107;28;20234;-51
2023/04/04 07:42:23;;;;;;;4.83;2.00;;;;;;;;;;5040959;28;20235;-52
2023/04/04 07:44:51;;;;;;;3.50;2.37;;;;;;;;;;5043504;28;20228;-52
2023/04/04 07:47:17;;;;;;;2.17;1.73;;;;;;;;;;5035029;28;20246;-52
2023/04/04 07:49:44;;;;;;;2.90;1.97;;;;;;;;;;5045835;28;20231;-52
2023/04/04 07:52:11;;;;;;;4.73;1.80;;;;;;;;;;5056149;28;20317;-52
2023/04/04 07:54:39;;;;;;;5.77;2.03;;;;;;;;;;5038616;28;20251;-52
2023/04/04 07:57:08;;;;;;;3.77;1.73;;;;;;;;;;5038593;28;20249;-51
2023/04/04 07:59:34;;;;;;;3.87;2.50;;;;;;;;;;5044555;28;20240;-52
2023/04/04 08:02:02;;;;;;;4.10;1.90;;;;;;;;;;5037758;28;20234;-52
2023/04/04 08:04:29;;;;;;;1.93;1.27;;;;;;;;;;5033824;28;20240;-53
2023/04/04 08:06:56;;;;;;;1.90;1.57;;;;;;;;;;5044454;28;20311;-52
2023/04/04 08:09:22;;;;;;;1.37;1.00;;;;;;;;;;5044222;28;20794;-55
2023/04/04 08:11:49;;;;;;;2.83;1.10;;;;;;;;;;5044857;28;20292;-52
2023/04/04 08:14:16;;;;;;;2.93;1.40;;;;;;;;;;5035407;28;20227;-52
2023/04/04 08:16:42;;;;;;;6.70;1.93;;;;;;;;;;5029371;28;20492;-53
2023/04/04 08:19:10;;;;;;;1.97;1.30;;;;;;;;;;5043974;28;20239;-51
2023/04/04 08:21:37;;;;;;;6.87;1.57;;;;;;;;;;5041904;28;20296;-52
2023/04/04 08:24:04;;;;;;;5.43;1.80;;;;;;;;;;5033861;28;20237;-52
2023/04/04 08:26:30;;;;;;;5.53;1.80;;;;;;;;;;5032749;28;20309;-52
2023/04/04 08:28:57;;;;;;;2.37;1.30;;;;;;;;;;5032975;28;20343;-52
2023/04/04 08:31:23;;;;;;;3.57;1.80;;;;;;;;;;5026891;28;20264;-52
2023/04/04 08:33:51;;;;;;;2.73;1.70;;;;;;;;;;5035982;28;20937;-51
2023/04/04 08:36:19;;;;;;;3.17;1.30;;;;;;;;;;5038371;28;20318;-52
2023/04/04 08:38:45;;;;;;;3.63;2.03;;;;;;;;;;5039641;28;20688;-52
2023/04/04 08:41:12;;;;;;;5.60;1.40;;;;;;;;;;5043703;28;20232;-51
2023/04/04 08:43:40;;;;;;;2.67;1.17;;;;;;;;;;5039145;28;20236;-52
2023/04/04 08:46:07;;;;;;;3.27;1.40;;;;;;;;;;5038118;28;20231;-52
2023/04/04 08:48:35;;;;;;;3.53;1.60;;;;;;;;;;5031756;28;20320;-52
2023/04/04 08:51:03;;;;;;;2.63;1.47;;;;;;;;;;5035356;28;20915;-52
2023/04/04 08:53:34;;;;;;;3.97;1.50;;;;;;;;;;5036947;28;20824;-51
2023/04/04 08:56:01;;;;;;;2.67;1.40;;;;;;;;;;5038451;28;20589;-52
2023/04/04 08:58:28;;;;;;;5.13;1.70;;;;;;;;;;5041892;28;20242;-52
2023/04/04 09:00:55;;;;;;;1.00;0.90;;;;;;;;;;5040900;28;20725;-52
2023/04/04 09:03:25;;;;;;;3.17;1.03;;;;;;;;;;5028500;28;20310;-51
2023/04/04 09:05:51;;;;;;;2.10;1.60;;;;;;;;;;5038728;28;20307;-51
2023/04/04 09:08:18;;;;;;;2.47;1.27;;;;;;;;;;5036902;28;20236;-51
2023/04/04 09:10:46;;;;;;;3.57;1.23;;;;;;;;;;5032030;28;20308;-52
2023/04/04 09:13:13;;;;;;;1.20;1.10;;;;;;;;;;5047790;28;20309;-51
2023/04/04 09:15:41;;;;;;;2.93;1.30;;;;;;;;;;5031870;28;20656;-51
2023/04/04 09:18:08;;;;;;;3.40;1.63;;;;;;;;;;5034433;28;20236;-52
2023/04/04 09:20:39;;;;;;;2.90;1.30;;;;;;;;;;5033505;28;20235;-51
2023/04/04 09:23:06;;;;;;;2.77;1.50;;;;;;;;;;5045985;28;20378;-52
2023/04/04 09:25:34;;;;;;;3.73;1.53;;;;;;;;;;5043055;28;20603;-52
2023/04/04 09:28:04;;;;;;;4.90;1.57;;;;;;;;;;5045323;28;20242;-52
2023/04/04 09:30:31;;;;;;;1.10;1.00;;;;;;;;;;5040124;28;20259;-52
2023/04/04 09:33:00;;;;;;;5.17;1.40;;;;;;;;;;5036099;28;20974;-51
2023/04/04 09:35:27;;;;;;;1.83;1.40;;;;;;;;;;5038284;28;20957;-52
2023/04/04 09:37:54;;;;;;;1.77;1.30;;;;;;;;;;5030368;28;20246;-52
2023/04/04 09:40:22;;;;;;;1.73;1.37;;;;;;;;;;5044383;28;20330;-50
2023/04/04 09:42:49;;;;;;;1.50;1.07;;;;;;;;;;5029357;28;20232;-51
2023/04/04 09:45:17;;;;;;;2.27;1.23;;;;;;;;;;5037904;28;20707;-52
2023/04/04 09:47:44;;;;;;;4.63;1.30;;;;;;;;;;5042828;28;20232;-51
2023/04/04 09:50:20;;;;;;;2.23;1.10;;;;;;;;;;5044498;28;20233;-50
2023/04/04 09:52:48;;;;;;;2.47;1.67;;;;;;;;;;5040274;28;20250;-51
2023/04/04 09:55:15;;;;;;;2.33;1.30;;;;;;;;;;5034979;28;20258;-53
2023/04/04 09:57:42;;;;;;;1.57;1.07;;;;;;;;;;5036724;28;20234;-52
2023/04/04 10:00:10;;;;;;;2.40;1.30;;;;;;;;;;5041529;28;20240;-51
2023/04/04 10:02:39;;;;;;;3.37;1.30;;;;;;;;;;5035503;28;20743;-51
2023/04/04 10:05:09;;;;;;;3.57;1.40;;;;;;;;;;5031856;28;20242;-50
2023/04/04 10:07:38;;;;;;;2.43;1.30;;;;;;;;;;5037125;28;20297;-50
2023/04/04 10:10:05;;;;;;;1.73;1.10;;;;;;;;;;5029711;28;20315;-51
2023/04/04 10:12:32;;;;;;;3.07;1.10;;;;;;;;;;5029733;28;20243;-51
2023/04/04 10:15:00;;;;;;;2.00;0.90;;;;;;;;;;5036869;28;20233;-51
2023/04/04 10:17:30;;;;;;;1.40;1.00;;;;;;;;;;5032033;28;20251;-51
2023/04/04 10:20:00;;;;;;;1.50;0.87;;;;;;;;;;5052183;28;20224;-51
2023/04/04 10:22:26;;;;;;;2.00;1.10;;;;;;;;;;5047237;28;20577;-51
2023/04/04 10:24:53;;;;;;;1.60;1.20;;;;;;;;;;5046337;28;20244;-52
2023/04/04 10:27:20;;;;;;;2.50;1.57;;;;;;;;;;5032117;28;21141;-51
2023/04/04 10:29:47;;;;;;;1.50;0.87;;;;;;;;;;5043705;28;20245;-51
2023/04/04 10:32:18;;;;;;;0.97;0.60;;;;;;;;;;5035399;28;20725;-52
2023/04/04 10:34:47;;;;;;;3.50;0.90;;;;;;;;;;5038938;28;20235;-51
2023/04/04 10:37:18;;;;;;;1.43;1.10;;;;;;;;;;5046865;28;20232;-51
2023/04/04 10:39:46;;;;;;;2.33;1.03;;;;;;;;;;5040059;28;20231;-52
2023/04/04 10:42:14;;;;;;;2.23;0.90;;;;;;;;;;5033847;28;20229;-52
2023/04/04 10:44:41;;;;;;;0.70;0.70;;;;;;;;;;5046010;28;20714;-51
2023/04/04 10:47:14;;;;;;;1.27;1.13;;;;;;;;;;5044555;28;20697;-52
2023/04/04 10:49:40;;;;;;;1.50;1.20;;;;;;;;;;5047362;28;20238;-51
2023/04/04 10:52:08;;;;;;;2.00;0.70;;;;;;;;;;5039828;28;20279;-52
2023/04/04 10:54:36;;;;;;;2.07;1.33;;;;;;;;;;5037127;28;22238;-51
2023/04/04 10:57:02;;;;;;;1.47;1.13;;;;;;;;;;5045828;28;20247;-51
2023/04/04 10:59:29;;;;;;;0.90;0.90;;;;;;;;;;5039478;28;20223;-51
2023/04/04 11:01:57;;;;;;;2.90;1.03;;;;;;;;;;5041626;28;20286;-52
2023/04/04 11:04:29;;;;;;;2.00;1.00;;;;;;;;;;5041882;28;20325;-51
2023/04/04 11:07:10;;;;;;;2.00;0.87;;;;;;;;;;5035240;28;20236;-51
2023/04/04 11:09:47;;;;;;;2.60;1.10;;;;;;;;;;5042201;28;20232;-51
2023/04/04 11:12:19;;;;;;;1.50;0.90;;;;;;;;;;5032989;28;21172;-52
2023/04/04 11:14:54;;;;;;;0.80;0.80;;;;;;;;;;5040695;28;20764;-51
2023/04/04 11:17:36;;;;;;;4.10;1.40;;;;;;;;;;5048048;28;20807;-54
2023/04/04 11:20:05;;;;;;;3.33;1.77;;;;;;;;;;5043368;28;20327;-51
2023/04/04 11:22:31;;;;;;;1.00;0.90;;;;;;;;;;5047662;28;20792;-51
2023/04/04 11:25:00;;;;;;;3.20;1.13;;;;;;;;;;5046408;28;20278;-51
2023/04/04 11:27:28;;;;;;;2.17;1.20;;;;;;;;;;5041507;28;20718;-51
2023/04/04 11:29:58;;;;;;;2.77;1.00;;;;;;;;;;5042158;28;20236;-51
2023/04/04 11:32:29;;;;;;;1.33;1.23;;;;;;;;;;5037396;28;20727;-52
2023/04/04 11:34:56;;;;;;;1.80;1.13;;;;;;;;;;5038019;28;20228;-52
2023/04/04 11:37:23;;;;;;;2.73;1.17;;;;;;;;;;5043591;28;20240;-52
2023/04/04 11:39:56;;;;;;;1.20;1.10;;;;;;;;;;5041303;28;20234;-55
2023/04/04 11:42:23;;;;;;;3.33;1.00;;;;;;;;;;5033244;28;20244;-52
2023/04/04 11:45:02;;;;;;;1.27;0.77;;;;;;;;;;5040565;28;20236;-52
2023/04/04 11:47:29;;;;;;;1.60;0.93;;;;;;;;;;5042044;28;20778;-52
2023/04/04 11:49:59;;;;;;;4.60;1.13;;;;;;;;;;5041750;28;20234;-51
2023/04/04 11:52:25;;;;;;;1.40;0.80;;;;;;;;;;5037829;28;20737;-49
2023/04/04 11:54:52;;;;;;;1.30;0.90;;;;;;;;;;5048893;28;20674;-50
2023/04/04 11:57:20;;;;;;;1.80;0.90;;;;;;;;;;5039634;28;20324;-50
2023/04/04 11:59:49;;;;;;;1.07;1.00;;;;;;;;;;5050413;28;20228;-52
2023/04/04 12:02:19;;;;;;;1.43;1.27;;;;;;;;;;5048570;28;20228;-51
2023/04/04 12:04:46;;;;;;;1.60;1.47;;;;;;;;;;5054686;28;20311;-50
2023/04/04 12:07:14;;;;;;;0.77;0.73;;;;;;;;;;5050458;28;20235;-52
2023/04/04 12:09:41;;;;;;;2.43;1.00;;;;;;;;;;5046405;28;20235;-50
2023/04/04 12:12:08;;;;;;;2.40;0.97;;;;;;;;;;5046286;28;20314;-52
2023/04/04 12:14:34;;;;;;;2.17;0.70;;;;;;;;;;5046549;28;20236;-51
2023/04/04 12:17:02;;;;;;;1.30;1.20;;;;;;;;;;5040609;28;20790;-51
2023/04/04 12:19:30;;;;;;;2.27;1.00;;;;;;;;;;5046124;28;20709;-51
2023/04/04 12:21:57;;;;;;;1.77;1.00;;;;;;;;;;5028608;28;20236;-51
2023/04/04 12:24:24;;;;;;;2.10;1.03;;;;;;;;;;5038564;28;20225;-51
2023/04/04 12:26:52;;;;;;;2.50;1.00;;;;;;;;;;5035509;28;20279;-51
2023/04/04 12:29:20;;;;;;;1.43;1.10;;;;;;;;;;5046345;28;20235;-51
2023/04/04 12:31:47;;;;;;;1.30;1.10;;;;;;;;;;5045972;28;20255;-51
2023/04/04 12:34:19;;;;;;;2.37;1.10;;;;;;;;;;5037693;28;20472;-50
2023/04/04 12:36:47;;;;;;;0.80;0.80;;;;;;;;;;5039697;28;20235;-51
2023/04/04 12:39:15;;;;;;;2.00;1.00;;;;;;;;;;5053934;28;20242;-51
2023/04/04 12:41:47;;;;;;;1.37;0.80;;;;;;;;;;5037724;28;20231;-51
2023/04/04 12:44:25;;;;;;;3.60;1.27;;;;;;;;;;5039687;28;20281;-54
2023/04/04 12:46:51;;;;;;;1.97;1.00;;;;;;;;;;5049723;28;20272;-51
2023/04/04 12:49:21;;;;;;;3.83;0.90;;;;;;;;;;5042868;28;20642;-50
2023/04/04 12:51:48;;;;;;;1.30;1.20;;;;;;;;;;5041497;28;20224;-51
2023/04/04 12:54:25;;;;;;;2.00;0.90;;;;;;;;;;5044687;28;20235;-51
2023/04/04 12:56:55;;;;;;;0.80;0.80;;;;;;;;;;5041246;28;20598;-51
2023/04/04 12:59:22;;;;;;;1.10;1.00;;;;;;;;;;5038022;28;20239;-51
2023/04/04 13:01:49;;;;;;;2.47;1.53;;;;;;;;;;5036448;28;20716;-51
2023/04/04 13:04:16;;;;;;;4.10;1.10;;;;;;;;;;5043537;28;20243;-51
2023/04/04 13:06:46;;;;;;;1.67;1.07;;;;;;;;;;5043942;28;20867;-51
2023/04/04 13:09:17;;;;;;;2.73;1.93;;;;;;;;;;5043856;28;21016;-51
2023/04/04 13:11:56;;;;;;;1.27;0.90;;;;;;;;;;5043722;28;20232;-51
2023/04/04 13:14:23;;;;;;;1.80;1.40;;;;;;;;;;5035751;28;20235;-53
2023/04/04 13:17:01;;;;;;;3.63;1.23;;;;;;;;;;5044124;28;20239;-50
2023/04/04 13:19:28;;;;;;;2.63;1.20;;;;;;;;;;5042721;28;20315;-52
2023/04/04 13:21:56;;;;;;;0.93;0.80;;;;;;;;;;5046729;28;20286;-50
2023/04/04 13:24:22;;;;;;;0.80;0.80;;;;;;;;;;5049156;28;20315;-50
2023/04/04 13:26:49;;;;;;;1.93;1.03;;;;;;;;;;5051408;28;20768;-50
2023/04/04 13:29:15;;;;;;;1.80;1.20;;;;;;;;;;5050970;28;20256;-51
2023/04/04 13:31:42;;;;;;;3.77;0.97;;;;;;;;;;5041757;28;20238;-50
2023/04/04 13:34:08;;;;;;;2.43;1.37;;;;;;;;;;5038390;28;20598;-51
2023/04/04 13:36:35;;;;;;;4.23;2.43;;;;;;;;;;5048403;28;20726;-50
2023/04/04 13:39:03;;;;;;;2.77;1.60;;;;;;;;;;5052446;28;20296;-50
2023/04/04 13:41:29;;;;;;;1.10;1.00;;;;;;;;;;5046101;28;20656;-50
2023/04/04 13:43:56;;;;;;;1.67;1.00;;;;;;;;;;5048476;28;20706;-50
2023/04/04 13:46:22;;;;;;;1.93;1.20;;;;;;;;;;5047360;28;20590;-50
2023/04/04 13:48:49;;;;;;;1.80;1.13;;;;;;;;;;5048333;28;20233;-50
2023/04/04 13:51:15;;;;;;;1.23;1.03;;;;;;;;;;5040250;28;20718;-51
2023/04/04 13:53:43;;;;;;;1.70;0.73;;;;;;;;;;5043335;28;20223;-50
2023/04/04 13:56:11;;;;;;;1.07;0.77;;;;;;;;;;5045784;28;20226;-51
2023/04/04 13:58:38;;;;;;;1.97;1.20;;;;;;;;;;5038866;28;20933;-51
2023/04/04 14:01:04;;;;;;;1.20;0.83;;;;;;;;;;5049830;28;20242;-51
2023/04/04 14:03:31;;;;;;;1.20;1.10;;;;;;;;;;5049001;28;20250;-51
2023/04/04 14:05:57;;;;;;;0.80;0.80;;;;;;;;;;5044455;28;20246;-50
2023/04/04 14:08:24;;;;;;;3.10;1.50;;;;;;;;;;5042337;28;20243;-50
2023/04/04 14:10:50;;;;;;;0.73;0.73;;;;;;;;;;5051627;28;20668;-52
2023/04/04 14:13:18;;;;;;;1.03;0.77;;;;;;;;;;5045017;28;20224;-50
2023/04/04 14:15:45;;;;;;;1.60;0.90;;;;;;;;;;5041741;28;20238;-52
2023/04/04 14:18:12;;;;;;;0.80;0.80;;;;;;;;;;5041359;28;20240;-51
2023/04/04 14:20:38;;;;;;;2.23;1.03;;;;;;;;;;5047778;28;20279;-51
2023/04/04 14:23:05;;;;;;;2.40;1.00;;;;;;;;;;5041793;28;20231;-52
2023/04/04 14:25:32;;;;;;;2.10;1.67;;;;;;;;;;5047691;28;20432;-51
2023/04/04 14:27:58;;;;;;;1.23;1.03;;;;;;;;;;5041904;28;20235;-52
2023/04/04 14:30:26;;;;;;;2.10;0.90;;;;;;;;;;5044435;28;20322;-52
2023/04/04 14:32:53;;;;;;;0.97;0.70;;;;;;;;;;5040203;28;20326;-52
2023/04/04 14:35:19;;;;;;;1.30;1.00;;;;;;;;;;5040629;28;20829;-51
2023/04/04 14:37:46;;;;;;;1.20;1.00;;;;;;;;;;5046192;28;20764;-50
2023/04/04 14:40:12;;;;;;;0.87;0.87;;;;;;;;;;5046651;28;20311;-51
2023/04/04 14:42:39;;;;;;;1.67;1.00;;;;;;;;;;5043499;28;20620;-51
2023/04/04 14:45:07;;;;;;;1.70;1.10;;;;;;;;;;5035439;28;20285;-51